sensor_id;sensor_type;location;lat;lon;timestamp;temperature;humidity
6738;DHT22;3406;49.902;8.596;2023-06-22T00:00:00;23.70;76.80
6738;DHT22;3406;49.902;8.596;2023-06-22T00:02:26;23.80;77.00
6738;DHT22;3406;49.902;8.596;2023-06-22T00:04:53;23.80;77.00
6738;DHT22;3406;49.902;8.596;2023-06-22T00:07:20;23.80;77.10
6738;DHT22;3406;49.902;8.596;2023-06-22T00:09:46;23.80;77.20
6738;DHT22;3406;49.902;8.596;2023-06-22T00:12:13;23.90;77.50
6738;DHT22;3406;49.902;8.596;2023-06-22T00:14:39;23.90;77.50
6738;DHT22;3406;49.902;8.596;2023-06-22T00:17:07;23.90;77.60
6738;DHT22;3406;49.902;8.596;2023-06-22T00:19:34;23.90;77.70
6738;DHT22;3406;49.902;8.596;2023-06-22T00:22:01;23.90;77.80
6738;DHT22;3406;49.902;8.596;2023-06-22T00:24:29;23.90;77.90
6738;DHT22;3406;49.902;8.596;2023-06-22T00:26:55;24.00;78.00
6738;DHT22;3406;49.902;8.596;2023-06-22T00:29:22;23.90;78.00
6738;DHT22;3406;49.902;8.596;2023-06-22T00:31:48;23.90;78.20
6738;DHT22;3406;49.902;8.596;2023-06-22T00:34:16;23.90;78.50
6738;DHT22;3406;49.902;8.596;2023-06-22T00:36:43;23.80;78.70
6738;DHT22;3406;49.902;8.596;2023-06-22T00:39:10;23.70;78.90
6738;DHT22;3406;49.902;8.596;2023-06-22T00:41:37;23.80;79.10
6738;DHT22;3406;49.902;8.596;2023-06-22T00:44:04;23.70;79.20
6738;DHT22;3406;49.902;8.596;2023-06-22T00:46:32;23.70;79.30
6738;DHT22;3406;49.902;8.596;2023-06-22T00:48:59;23.70;79.30
6738;DHT22;3406;49.902;8.596;2023-06-22T00:51:27;23.70;79.30
6738;DHT22;3406;49.902;8.596;2023-06-22T00:53:54;23.70;79.30
6738;DHT22;3406;49.902;8.596;2023-06-22T00:56:22;23.70;79.30
6738;DHT22;3406;49.902;8.596;2023-06-22T00:58:50;23.70;79.30
6738;DHT22;3406;49.902;8.596;2023-06-22T01:01:19;23.70;79.30
6738;DHT22;3406;49.902;8.596;2023-06-22T01:03:48;23.70;79.30
6738;DHT22;3406;49.902;8.596;2023-06-22T01:06:20;23.70;79.20
6738;DHT22;3406;49.902;8.596;2023-06-22T01:09:00;23.70;79.30
6738;DHT22;3406;49.902;8.596;2023-06-22T01:11:33;23.70;79.70
6738;DHT22;3406;49.902;8.596;2023-06-22T01:14:07;23.60;80.00
6738;DHT22;3406;49.902;8.596;2023-06-22T01:16:37;23.50;80.40
6738;DHT22;3406;49.902;8.596;2023-06-22T01:19:14;23.40;80.90
6738;DHT22;3406;49.902;8.596;2023-06-22T01:21:45;23.20;81.60
6738;DHT22;3406;49.902;8.596;2023-06-22T01:24:22;23.10;82.70
6738;DHT22;3406;49.902;8.596;2023-06-22T01:26:57;23.00;84.80
6738;DHT22;3406;49.902;8.596;2023-06-22T01:29:29;22.70;86.60
6738;DHT22;3406;49.902;8.596;2023-06-22T01:31:57;22.50;89.70
6738;DHT22;3406;49.902;8.596;2023-06-22T01:34:25;22.20;91.10
6738;DHT22;3406;49.902;8.596;2023-06-22T01:36:53;22.00;92.10
6738;DHT22;3406;49.902;8.596;2023-06-22T01:39:21;21.90;92.80
6738;DHT22;3406;49.902;8.596;2023-06-22T01:41:48;21.90;93.20
6738;DHT22;3406;49.902;8.596;2023-06-22T01:44:15;21.90;93.50
6738;DHT22;3406;49.902;8.596;2023-06-22T01:46:44;21.90;93.80
6738;DHT22;3406;49.902;8.596;2023-06-22T01:49:11;21.90;94.00
6738;DHT22;3406;49.902;8.596;2023-06-22T01:51:37;21.90;94.20
6738;DHT22;3406;49.902;8.596;2023-06-22T01:54:06;22.00;94.20
6738;DHT22;3406;49.902;8.596;2023-06-22T01:56:33;22.10;94.30
6738;DHT22;3406;49.902;8.596;2023-06-22T01:59:04;22.10;94.20
6738;DHT22;3406;49.902;8.596;2023-06-22T02:01:42;22.20;94.60
6738;DHT22;3406;49.902;8.596;2023-06-22T02:04:13;22.20;94.40
6738;DHT22;3406;49.902;8.596;2023-06-22T02:06:45;22.20;94.50
6738;DHT22;3406;49.902;8.596;2023-06-22T02:09:17;22.20;94.60
6738;DHT22;3406;49.902;8.596;2023-06-22T02:11:46;22.20;94.60
6738;DHT22;3406;49.902;8.596;2023-06-22T02:14:15;22.30;94.70
6738;DHT22;3406;49.902;8.596;2023-06-22T02:16:43;22.30;94.70
6738;DHT22;3406;49.902;8.596;2023-06-22T02:19:10;22.30;95.10
6738;DHT22;3406;49.902;8.596;2023-06-22T02:21:37;22.30;94.80
6738;DHT22;3406;49.902;8.596;2023-06-22T02:24:04;22.30;94.90
6738;DHT22;3406;49.902;8.596;2023-06-22T02:26:31;22.30;95.00
6738;DHT22;3406;49.902;8.596;2023-06-22T02:28:59;22.30;95.00
6738;DHT22;3406;49.902;8.596;2023-06-22T02:31:26;22.30;95.00
6738;DHT22;3406;49.902;8.596;2023-06-22T02:33:57;22.30;95.10
6738;DHT22;3406;49.902;8.596;2023-06-22T02:36:24;22.30;95.10
6738;DHT22;3406;49.902;8.596;2023-06-22T02:38:52;22.30;95.20
6738;DHT22;3406;49.902;8.596;2023-06-22T02:41:19;22.30;95.20
6738;DHT22;3406;49.902;8.596;2023-06-22T02:43:47;22.30;95.20
6738;DHT22;3406;49.902;8.596;2023-06-22T02:46:13;22.30;95.20
6738;DHT22;3406;49.902;8.596;2023-06-22T02:48:40;22.30;95.20
6738;DHT22;3406;49.902;8.596;2023-06-22T02:51:08;22.30;95.30
6738;DHT22;3406;49.902;8.596;2023-06-22T02:53:35;22.30;95.30
6738;DHT22;3406;49.902;8.596;2023-06-22T02:56:02;22.30;95.40
6738;DHT22;3406;49.902;8.596;2023-06-22T02:58:30;22.20;95.40
6738;DHT22;3406;49.902;8.596;2023-06-22T03:01:04;22.20;95.40
6738;DHT22;3406;49.902;8.596;2023-06-22T03:03:31;22.20;95.40
6738;DHT22;3406;49.902;8.596;2023-06-22T03:05:58;22.20;95.50
6738;DHT22;3406;49.902;8.596;2023-06-22T03:08:27;22.10;95.50
6738;DHT22;3406;49.902;8.596;2023-06-22T03:10:54;22.10;95.60
6738;DHT22;3406;49.902;8.596;2023-06-22T03:13:21;22.00;95.60
6738;DHT22;3406;49.902;8.596;2023-06-22T03:15:48;22.00;95.80
6738;DHT22;3406;49.902;8.596;2023-06-22T03:18:14;21.90;95.90
6738;DHT22;3406;49.902;8.596;2023-06-22T03:20:42;21.90;96.10
6738;DHT22;3406;49.902;8.596;2023-06-22T03:23:08;21.80;96.20
6738;DHT22;3406;49.902;8.596;2023-06-22T03:25:36;21.80;96.40
6738;DHT22;3406;49.902;8.596;2023-06-22T03:28:03;21.80;96.50
6738;DHT22;3406;49.902;8.596;2023-06-22T03:30:30;21.70;96.60
6738;DHT22;3406;49.902;8.596;2023-06-22T03:32:56;21.70;96.70
6738;DHT22;3406;49.902;8.596;2023-06-22T03:35:23;21.80;96.80
6738;DHT22;3406;49.902;8.596;2023-06-22T03:37:50;21.80;96.80
6738;DHT22;3406;49.902;8.596;2023-06-22T03:40:16;21.80;96.90
6738;DHT22;3406;49.902;8.596;2023-06-22T03:42:45;21.80;96.90
6738;DHT22;3406;49.902;8.596;2023-06-22T03:45:12;21.70;96.90
6738;DHT22;3406;49.902;8.596;2023-06-22T03:47:39;21.70;97.00
6738;DHT22;3406;49.902;8.596;2023-06-22T03:50:06;21.70;97.20
6738;DHT22;3406;49.902;8.596;2023-06-22T03:52:33;21.70;97.30
6738;DHT22;3406;49.902;8.596;2023-06-22T03:54:59;21.70;97.50
6738;DHT22;3406;49.902;8.596;2023-06-22T03:57:26;21.70;97.70
6738;DHT22;3406;49.902;8.596;2023-06-22T03:59:56;21.70;97.80
6738;DHT22;3406;49.902;8.596;2023-06-22T04:02:23;21.70;98.00
6738;DHT22;3406;49.902;8.596;2023-06-22T04:04:50;21.70;98.20
6738;DHT22;3406;49.902;8.596;2023-06-22T04:07:17;21.70;98.30
6738;DHT22;3406;49.902;8.596;2023-06-22T04:09:44;21.70;98.40
6738;DHT22;3406;49.902;8.596;2023-06-22T04:12:10;21.70;98.50
6738;DHT22;3406;49.902;8.596;2023-06-22T04:14:37;21.70;98.60
6738;DHT22;3406;49.902;8.596;2023-06-22T04:17:05;21.70;98.70
6738;DHT22;3406;49.902;8.596;2023-06-22T04:19:32;21.60;98.70
6738;DHT22;3406;49.902;8.596;2023-06-22T04:21:59;21.60;98.80
6738;DHT22;3406;49.902;8.596;2023-06-22T04:24:25;21.60;99.00
6738;DHT22;3406;49.902;8.596;2023-06-22T04:26:52;21.60;99.00
6738;DHT22;3406;49.902;8.596;2023-06-22T04:29:20;21.70;99.20
6738;DHT22;3406;49.902;8.596;2023-06-22T04:31:54;21.70;99.30
6738;DHT22;3406;49.902;8.596;2023-06-22T04:34:24;21.70;99.40
6738;DHT22;3406;49.902;8.596;2023-06-22T04:36:53;21.70;99.40
6738;DHT22;3406;49.902;8.596;2023-06-22T04:39:20;21.70;99.50
6738;DHT22;3406;49.902;8.596;2023-06-22T04:41:47;21.70;99.60
6738;DHT22;3406;49.902;8.596;2023-06-22T04:44:15;21.70;99.60
6738;DHT22;3406;49.902;8.596;2023-06-22T04:46:49;21.70;99.60
6738;DHT22;3406;49.902;8.596;2023-06-22T04:49:20;21.80;99.70
6738;DHT22;3406;49.902;8.596;2023-06-22T04:51:48;21.80;99.70
6738;DHT22;3406;49.902;8.596;2023-06-22T04:54:17;21.80;99.70
6738;DHT22;3406;49.902;8.596;2023-06-22T04:56:43;21.90;99.70
6738;DHT22;3406;49.902;8.596;2023-06-22T04:59:12;21.90;99.80
6738;DHT22;3406;49.902;8.596;2023-06-22T05:01:38;22.00;99.80
6738;DHT22;3406;49.902;8.596;2023-06-22T05:04:05;22.00;99.70
6738;DHT22;3406;49.902;8.596;2023-06-22T05:06:32;22.00;99.60
6738;DHT22;3406;49.902;8.596;2023-06-22T05:09:00;22.10;99.70
6738;DHT22;3406;49.902;8.596;2023-06-22T05:11:28;22.10;99.60
6738;DHT22;3406;49.902;8.596;2023-06-22T05:13:56;22.20;99.70
6738;DHT22;3406;49.902;8.596;2023-06-22T05:16:22;22.20;99.60
6738;DHT22;3406;49.902;8.596;2023-06-22T05:18:51;22.30;99.60
6738;DHT22;3406;49.902;8.596;2023-06-22T05:21:21;22.40;99.50
6738;DHT22;3406;49.902;8.596;2023-06-22T05:23:48;22.40;99.50
6738;DHT22;3406;49.902;8.596;2023-06-22T05:26:16;22.60;99.50
6738;DHT22;3406;49.902;8.596;2023-06-22T05:28:43;22.70;99.40
6738;DHT22;3406;49.902;8.596;2023-06-22T05:31:12;22.70;99.10
6738;DHT22;3406;49.902;8.596;2023-06-22T05:33:38;22.80;99.10
6738;DHT22;3406;49.902;8.596;2023-06-22T05:36:05;22.90;99.00
6738;DHT22;3406;49.902;8.596;2023-06-22T05:38:32;23.00;98.90
6738;DHT22;3406;49.902;8.596;2023-06-22T05:40:59;23.10;98.90
6738;DHT22;3406;49.902;8.596;2023-06-22T05:43:27;23.20;98.70
6738;DHT22;3406;49.902;8.596;2023-06-22T05:45:53;23.30;98.60
6738;DHT22;3406;49.902;8.596;2023-06-22T05:48:20;23.40;98.40
6738;DHT22;3406;49.902;8.596;2023-06-22T05:50:47;23.50;98.20
6738;DHT22;3406;49.902;8.596;2023-06-22T05:53:13;23.60;97.90
6738;DHT22;3406;49.902;8.596;2023-06-22T05:55:40;23.60;97.80
6738;DHT22;3406;49.902;8.596;2023-06-22T05:58:08;23.70;97.70
6738;DHT22;3406;49.902;8.596;2023-06-22T06:00:36;23.90;97.40
6738;DHT22;3406;49.902;8.596;2023-06-22T06:03:03;24.00;97.20
6738;DHT22;3406;49.902;8.596;2023-06-22T06:05:30;24.00;96.90
6738;DHT22;3406;49.902;8.596;2023-06-22T06:07:57;24.10;96.70
6738;DHT22;3406;49.902;8.596;2023-06-22T06:10:24;24.20;96.50
6738;DHT22;3406;49.902;8.596;2023-06-22T06:12:51;24.30;96.30
6738;DHT22;3406;49.902;8.596;2023-06-22T06:15:18;24.40;95.90
6738;DHT22;3406;49.902;8.596;2023-06-22T06:17:47;24.60;95.80
6738;DHT22;3406;49.902;8.596;2023-06-22T06:20:14;24.70;95.60
6738;DHT22;3406;49.902;8.596;2023-06-22T06:22:40;24.80;95.30
6738;DHT22;3406;49.902;8.596;2023-06-22T06:25:08;24.90;95.10
6738;DHT22;3406;49.902;8.596;2023-06-22T06:27:35;25.00;94.40
6738;DHT22;3406;49.902;8.596;2023-06-22T06:30:02;25.10;94.30
6738;DHT22;3406;49.902;8.596;2023-06-22T06:32:29;25.30;94.10
6738;DHT22;3406;49.902;8.596;2023-06-22T06:34:57;25.50;93.70
6738;DHT22;3406;49.902;8.596;2023-06-22T06:37:24;25.70;93.50
6738;DHT22;3406;49.902;8.596;2023-06-22T06:39:50;25.90;93.10
6738;DHT22;3406;49.902;8.596;2023-06-22T06:42:17;26.00;92.70
6738;DHT22;3406;49.902;8.596;2023-06-22T06:44:44;26.10;92.10
6738;DHT22;3406;49.902;8.596;2023-06-22T06:47:11;26.20;91.80
6738;DHT22;3406;49.902;8.596;2023-06-22T06:49:38;26.40;91.60
6738;DHT22;3406;49.902;8.596;2023-06-22T06:52:06;26.50;91.20
6738;DHT22;3406;49.902;8.596;2023-06-22T06:54:33;26.60;90.70
6738;DHT22;3406;49.902;8.596;2023-06-22T06:57:00;26.60;90.20
6738;DHT22;3406;49.902;8.596;2023-06-22T06:59:28;26.70;89.20
6738;DHT22;3406;49.902;8.596;2023-06-22T07:01:55;26.70;88.40
6738;DHT22;3406;49.902;8.596;2023-06-22T07:04:22;26.70;86.90
6738;DHT22;3406;49.902;8.596;2023-06-22T07:06:48;26.70;86.70
6738;DHT22;3406;49.902;8.596;2023-06-22T07:09:16;26.70;86.20
6738;DHT22;3406;49.902;8.596;2023-06-22T07:11:44;26.70;85.70
6738;DHT22;3406;49.902;8.596;2023-06-22T07:14:10;26.70;84.70
6738;DHT22;3406;49.902;8.596;2023-06-22T07:16:37;26.80;84.20
6738;DHT22;3406;49.902;8.596;2023-06-22T07:19:03;26.80;84.20
6738;DHT22;3406;49.902;8.596;2023-06-22T07:21:30;26.70;83.10
6738;DHT22;3406;49.902;8.596;2023-06-22T07:23:57;26.80;83.20
6738;DHT22;3406;49.902;8.596;2023-06-22T07:26:25;26.90;83.00
6738;DHT22;3406;49.902;8.596;2023-06-22T07:28:51;27.00;82.40
6738;DHT22;3406;49.902;8.596;2023-06-22T07:31:18;27.10;81.90
6738;DHT22;3406;49.902;8.596;2023-06-22T07:33:45;27.10;81.20
6738;DHT22;3406;49.902;8.596;2023-06-22T07:36:11;27.10;81.00
6738;DHT22;3406;49.902;8.596;2023-06-22T07:38:38;27.30;80.60
6738;DHT22;3406;49.902;8.596;2023-06-22T07:41:04;27.40;80.00
6738;DHT22;3406;49.902;8.596;2023-06-22T07:43:33;27.40;79.70
6738;DHT22;3406;49.902;8.596;2023-06-22T07:45:59;27.50;78.70
6738;DHT22;3406;49.902;8.596;2023-06-22T07:48:26;27.60;78.40
6738;DHT22;3406;49.902;8.596;2023-06-22T07:50:53;27.60;77.80
6738;DHT22;3406;49.902;8.596;2023-06-22T07:53:20;27.60;77.60
6738;DHT22;3406;49.902;8.596;2023-06-22T07:55:46;27.70;77.20
6738;DHT22;3406;49.902;8.596;2023-06-22T07:58:13;27.70;76.80
6738;DHT22;3406;49.902;8.596;2023-06-22T08:00:42;27.80;76.70
6738;DHT22;3406;49.902;8.596;2023-06-22T08:03:09;28.00;76.90
6738;DHT22;3406;49.902;8.596;2023-06-22T08:05:35;28.10;75.50
6738;DHT22;3406;49.902;8.596;2023-06-22T08:08:02;28.20;75.00
6738;DHT22;3406;49.902;8.596;2023-06-22T08:10:29;28.20;74.70
6738;DHT22;3406;49.902;8.596;2023-06-22T08:12:55;28.20;75.00
6738;DHT22;3406;49.902;8.596;2023-06-22T08:15:22;28.30;74.60
6738;DHT22;3406;49.902;8.596;2023-06-22T08:17:50;28.40;73.70
6738;DHT22;3406;49.902;8.596;2023-06-22T08:20:17;28.40;72.60
6738;DHT22;3406;49.902;8.596;2023-06-22T08:22:44;28.50;72.40
6738;DHT22;3406;49.902;8.596;2023-06-22T08:25:11;28.50;72.10
6738;DHT22;3406;49.902;8.596;2023-06-22T08:27:38;28.50;71.60
6738;DHT22;3406;49.902;8.596;2023-06-22T08:30:06;28.40;70.90
6738;DHT22;3406;49.902;8.596;2023-06-22T08:32:33;28.50;71.40
6738;DHT22;3406;49.902;8.596;2023-06-22T08:35:01;28.60;71.20
6738;DHT22;3406;49.902;8.596;2023-06-22T08:37:28;28.70;70.70
6738;DHT22;3406;49.902;8.596;2023-06-22T08:39:56;28.80;70.80
6738;DHT22;3406;49.902;8.596;2023-06-22T08:42:23;28.90;70.00
6738;DHT22;3406;49.902;8.596;2023-06-22T08:44:51;28.90;69.80
6738;DHT22;3406;49.902;8.596;2023-06-22T08:47:18;29.10;69.00
6738;DHT22;3406;49.902;8.596;2023-06-22T08:49:44;29.00;67.60
6738;DHT22;3406;49.902;8.596;2023-06-22T08:52:12;29.00;67.70
6738;DHT22;3406;49.902;8.596;2023-06-22T08:54:39;29.00;66.90
6738;DHT22;3406;49.902;8.596;2023-06-22T08:57:06;29.00;67.10
6738;DHT22;3406;49.902;8.596;2023-06-22T08:59:33;29.20;66.80
6738;DHT22;3406;49.902;8.596;2023-06-22T09:01:59;29.20;66.10
6738;DHT22;3406;49.902;8.596;2023-06-22T09:04:26;29.20;66.50
6738;DHT22;3406;49.902;8.596;2023-06-22T09:06:53;29.30;66.10
6738;DHT22;3406;49.902;8.596;2023-06-22T09:09:21;29.30;65.60
6738;DHT22;3406;49.902;8.596;2023-06-22T09:11:48;29.20;65.40
6738;DHT22;3406;49.902;8.596;2023-06-22T09:14:15;29.20;65.40
6738;DHT22;3406;49.902;8.596;2023-06-22T09:16:41;29.30;65.50
6738;DHT22;3406;49.902;8.596;2023-06-22T09:19:08;29.40;65.20
6738;DHT22;3406;49.902;8.596;2023-06-22T09:21:35;29.50;65.20
6738;DHT22;3406;49.902;8.596;2023-06-22T09:24:01;29.50;64.70
6738;DHT22;3406;49.902;8.596;2023-06-22T09:26:29;29.70;64.80
6738;DHT22;3406;49.902;8.596;2023-06-22T09:28:56;29.80;64.80
6738;DHT22;3406;49.902;8.596;2023-06-22T09:31:23;29.90;63.70
6738;DHT22;3406;49.902;8.596;2023-06-22T09:33:51;29.90;62.90
6738;DHT22;3406;49.902;8.596;2023-06-22T09:36:18;29.90;62.90
6738;DHT22;3406;49.902;8.596;2023-06-22T09:38:45;29.80;63.10
6738;DHT22;3406;49.902;8.596;2023-06-22T09:41:11;29.80;63.60
6738;DHT22;3406;49.902;8.596;2023-06-22T09:43:39;29.80;63.60
6738;DHT22;3406;49.902;8.596;2023-06-22T09:46:06;29.90;63.40
6738;DHT22;3406;49.902;8.596;2023-06-22T09:48:34;30.10;62.60
6738;DHT22;3406;49.902;8.596;2023-06-22T09:51:01;30.20;61.80
6738;DHT22;3406;49.902;8.596;2023-06-22T09:53:28;30.30;61.20
6738;DHT22;3406;49.902;8.596;2023-06-22T09:55:55;30.40;61.20
6738;DHT22;3406;49.902;8.596;2023-06-22T09:58:22;30.60;60.60
6738;DHT22;3406;49.902;8.596;2023-06-22T10:00:50;30.70;60.20
6738;DHT22;3406;49.902;8.596;2023-06-22T10:03:18;30.80;59.90
6738;DHT22;3406;49.902;8.596;2023-06-22T10:05:44;30.80;59.40
6738;DHT22;3406;49.902;8.596;2023-06-22T10:08:11;30.80;59.50
6738;DHT22;3406;49.902;8.596;2023-06-22T10:10:38;30.90;58.90
6738;DHT22;3406;49.902;8.596;2023-06-22T10:13:08;30.80;58.40
6738;DHT22;3406;49.902;8.596;2023-06-22T10:15:35;30.70;58.30
6738;DHT22;3406;49.902;8.596;2023-06-22T10:18:03;30.70;57.00
6738;DHT22;3406;49.902;8.596;2023-06-22T10:20:30;30.80;57.10
6738;DHT22;3406;49.902;8.596;2023-06-22T10:22:57;30.90;57.10
6738;DHT22;3406;49.902;8.596;2023-06-22T10:25:23;30.90;56.80
6738;DHT22;3406;49.902;8.596;2023-06-22T10:27:51;31.00;56.60
6738;DHT22;3406;49.902;8.596;2023-06-22T10:30:17;31.20;56.80
6738;DHT22;3406;49.902;8.596;2023-06-22T10:32:44;31.30;56.60
6738;DHT22;3406;49.902;8.596;2023-06-22T10:35:12;31.50;56.20
6738;DHT22;3406;49.902;8.596;2023-06-22T10:37:42;31.60;56.10
6738;DHT22;3406;49.902;8.596;2023-06-22T10:40:09;31.70;55.90
6738;DHT22;3406;49.902;8.596;2023-06-22T10:42:36;31.60;55.80
6738;DHT22;3406;49.902;8.596;2023-06-22T10:45:03;31.50;56.10
6738;DHT22;3406;49.902;8.596;2023-06-22T10:47:30;31.40;55.80
6738;DHT22;3406;49.902;8.596;2023-06-22T10:49:56;31.40;55.90
6738;DHT22;3406;49.902;8.596;2023-06-22T10:52:24;31.50;55.70
6738;DHT22;3406;49.902;8.596;2023-06-22T10:54:51;31.60;55.80
6738;DHT22;3406;49.902;8.596;2023-06-22T10:57:18;31.70;55.60
6738;DHT22;3406;49.902;8.596;2023-06-22T10:59:45;31.70;55.20
6738;DHT22;3406;49.902;8.596;2023-06-22T11:02:11;31.70;55.40
6738;DHT22;3406;49.902;8.596;2023-06-22T11:04:38;31.70;55.20
6738;DHT22;3406;49.902;8.596;2023-06-22T11:07:05;31.80;55.30
6738;DHT22;3406;49.902;8.596;2023-06-22T11:09:33;32.00;55.30
6738;DHT22;3406;49.902;8.596;2023-06-22T11:12:00;32.20;54.70
6738;DHT22;3406;49.902;8.596;2023-06-22T11:14:26;32.40;54.40
6738;DHT22;3406;49.902;8.596;2023-06-22T11:16:53;32.50;54.30
6738;DHT22;3406;49.902;8.596;2023-06-22T11:19:20;32.60;53.90
6738;DHT22;3406;49.902;8.596;2023-06-22T11:21:46;32.40;54.00
6738;DHT22;3406;49.902;8.596;2023-06-22T11:24:13;32.40;54.50
6738;DHT22;3406;49.902;8.596;2023-06-22T11:26:42;32.40;53.70
6738;DHT22;3406;49.902;8.596;2023-06-22T11:29:09;32.40;53.80
6738;DHT22;3406;49.902;8.596;2023-06-22T11:31:36;32.40;53.60
6738;DHT22;3406;49.902;8.596;2023-06-22T11:34:03;32.40;53.70
6738;DHT22;3406;49.902;8.596;2023-06-22T11:36:30;32.40;54.10
6738;DHT22;3406;49.902;8.596;2023-06-22T11:38:58;32.40;54.30
6738;DHT22;3406;49.902;8.596;2023-06-22T11:41:24;32.30;54.10
6738;DHT22;3406;49.902;8.596;2023-06-22T11:43:52;32.20;54.50
6738;DHT22;3406;49.902;8.596;2023-06-22T11:46:19;32.30;54.50
6738;DHT22;3406;49.902;8.596;2023-06-22T11:48:46;32.30;54.30
6738;DHT22;3406;49.902;8.596;2023-06-22T11:51:12;32.30;54.60
6738;DHT22;3406;49.902;8.596;2023-06-22T11:53:39;32.30;54.40
6738;DHT22;3406;49.902;8.596;2023-06-22T11:56:06;32.30;54.40
6738;DHT22;3406;49.902;8.596;2023-06-22T11:58:32;32.40;54.30
6738;DHT22;3406;49.902;8.596;2023-06-22T12:01:00;32.50;54.30
6738;DHT22;3406;49.902;8.596;2023-06-22T12:03:27;32.60;54.40
6738;DHT22;3406;49.902;8.596;2023-06-22T12:05:54;32.50;54.10
6738;DHT22;3406;49.902;8.596;2023-06-22T12:08:21;32.60;54.20
6738;DHT22;3406;49.902;8.596;2023-06-22T12:10:49;32.70;54.10
6738;DHT22;3406;49.902;8.596;2023-06-22T12:13:15;32.80;53.90
6738;DHT22;3406;49.902;8.596;2023-06-22T12:15:42;32.90;53.80
6738;DHT22;3406;49.902;8.596;2023-06-22T12:18:10;32.90;53.60
6738;DHT22;3406;49.902;8.596;2023-06-22T12:20:37;32.90;53.30
6738;DHT22;3406;49.902;8.596;2023-06-22T12:23:03;32.90;53.20
6738;DHT22;3406;49.902;8.596;2023-06-22T12:25:30;32.80;53.40
6738;DHT22;3406;49.902;8.596;2023-06-22T12:27:57;32.70;53.00
6738;DHT22;3406;49.902;8.596;2023-06-22T12:30:23;32.60;53.40
6738;DHT22;3406;49.902;8.596;2023-06-22T12:32:50;32.60;53.70
6738;DHT22;3406;49.902;8.596;2023-06-22T12:35:18;32.70;53.70
6738;DHT22;3406;49.902;8.596;2023-06-22T12:37:44;32.70;53.20
6738;DHT22;3406;49.902;8.596;2023-06-22T12:40:11;32.80;53.10
6738;DHT22;3406;49.902;8.596;2023-06-22T12:42:38;33.00;52.80
6738;DHT22;3406;49.902;8.596;2023-06-22T12:45:06;33.20;52.60
6738;DHT22;3406;49.902;8.596;2023-06-22T12:47:32;33.40;52.10
6738;DHT22;3406;49.902;8.596;2023-06-22T12:49:59;33.40;52.00
6738;DHT22;3406;49.902;8.596;2023-06-22T12:52:29;33.50;51.90
6738;DHT22;3406;49.902;8.596;2023-06-22T12:54:56;33.50;51.50
6738;DHT22;3406;49.902;8.596;2023-06-22T12:57:22;33.60;51.50
6738;DHT22;3406;49.902;8.596;2023-06-22T12:59:50;33.80;51.60
6738;DHT22;3406;49.902;8.596;2023-06-22T13:02:17;34.00;51.20
6738;DHT22;3406;49.902;8.596;2023-06-22T13:04:44;34.00;51.10
6738;DHT22;3406;49.902;8.596;2023-06-22T13:07:11;34.10;51.30
6738;DHT22;3406;49.902;8.596;2023-06-22T13:09:39;34.10;51.10
6738;DHT22;3406;49.902;8.596;2023-06-22T13:12:06;34.10;51.00
6738;DHT22;3406;49.902;8.596;2023-06-22T13:14:33;34.10;51.00
6738;DHT22;3406;49.902;8.596;2023-06-22T13:17:00;34.20;51.10
6738;DHT22;3406;49.902;8.596;2023-06-22T13:19:26;34.40;51.00
6738;DHT22;3406;49.902;8.596;2023-06-22T13:21:57;34.60;50.70
6738;DHT22;3406;49.902;8.596;2023-06-22T13:24:24;34.70;50.30
6738;DHT22;3406;49.902;8.596;2023-06-22T13:26:52;34.80;49.90
6738;DHT22;3406;49.902;8.596;2023-06-22T13:29:18;35.00;48.80
6738;DHT22;3406;49.902;8.596;2023-06-22T13:31:45;35.20;48.60
6738;DHT22;3406;49.902;8.596;2023-06-22T13:34:12;35.40;47.60
6738;DHT22;3406;49.902;8.596;2023-06-22T13:36:38;35.50;46.50
6738;DHT22;3406;49.902;8.596;2023-06-22T13:39:05;35.40;46.00
6738;DHT22;3406;49.902;8.596;2023-06-22T13:41:31;35.40;45.80
6738;DHT22;3406;49.902;8.596;2023-06-22T13:43:59;35.30;45.50
6738;DHT22;3406;49.902;8.596;2023-06-22T13:46:26;35.30;45.70
6738;DHT22;3406;49.902;8.596;2023-06-22T13:48:53;35.30;45.60
6738;DHT22;3406;49.902;8.596;2023-06-22T13:51:19;35.50;45.00
6738;DHT22;3406;49.902;8.596;2023-06-22T13:53:46;35.60;44.50
6738;DHT22;3406;49.902;8.596;2023-06-22T13:56:12;35.70;44.30
6738;DHT22;3406;49.902;8.596;2023-06-22T13:58:39;35.80;44.20
6738;DHT22;3406;49.902;8.596;2023-06-22T14:01:07;35.70;43.80
6738;DHT22;3406;49.902;8.596;2023-06-22T14:03:34;35.70;43.60
6738;DHT22;3406;49.902;8.596;2023-06-22T14:06:00;35.70;43.60
6738;DHT22;3406;49.902;8.596;2023-06-22T14:08:27;35.60;43.50
6738;DHT22;3406;49.902;8.596;2023-06-22T14:10:54;35.50;43.00
6738;DHT22;3406;49.902;8.596;2023-06-22T14:13:20;35.50;43.00
6738;DHT22;3406;49.902;8.596;2023-06-22T14:15:47;35.50;42.80
6738;DHT22;3406;49.902;8.596;2023-06-22T14:18:15;35.40;42.60
6738;DHT22;3406;49.902;8.596;2023-06-22T14:20:42;35.30;42.50
6738;DHT22;3406;49.902;8.596;2023-06-22T14:23:09;35.30;42.90
6738;DHT22;3406;49.902;8.596;2023-06-22T14:25:36;35.30;42.90
6738;DHT22;3406;49.902;8.596;2023-06-22T14:28:03;35.40;42.90
6738;DHT22;3406;49.902;8.596;2023-06-22T14:30:29;35.50;42.90
6738;DHT22;3406;49.902;8.596;2023-06-22T14:32:56;35.60;42.70
6738;DHT22;3406;49.902;8.596;2023-06-22T14:35:24;35.60;42.50
6738;DHT22;3406;49.902;8.596;2023-06-22T14:37:50;35.50;42.60
6738;DHT22;3406;49.902;8.596;2023-06-22T14:40:17;35.40;42.70
6738;DHT22;3406;49.902;8.596;2023-06-22T14:42:44;35.50;42.50
6738;DHT22;3406;49.902;8.596;2023-06-22T14:45:10;35.50;42.00
6738;DHT22;3406;49.902;8.596;2023-06-22T14:47:37;35.60;42.00
6738;DHT22;3406;49.902;8.596;2023-06-22T14:50:05;35.50;41.60
6738;DHT22;3406;49.902;8.596;2023-06-22T14:52:33;35.50;41.60
6738;DHT22;3406;49.902;8.596;2023-06-22T14:55:00;35.60;41.30
6738;DHT22;3406;49.902;8.596;2023-06-22T14:57:26;35.50;40.90
6738;DHT22;3406;49.902;8.596;2023-06-22T14:59:53;35.40;40.90
6738;DHT22;3406;49.902;8.596;2023-06-22T15:02:20;35.30;41.00
6738;DHT22;3406;49.902;8.596;2023-06-22T15:04:47;35.20;41.20
6738;DHT22;3406;49.902;8.596;2023-06-22T15:07:14;34.90;41.60
6738;DHT22;3406;49.902;8.596;2023-06-22T15:09:42;34.70;42.00
6738;DHT22;3406;49.902;8.596;2023-06-22T15:12:10;34.50;42.50
6738;DHT22;3406;49.902;8.596;2023-06-22T15:14:39;34.50;43.20
6738;DHT22;3406;49.902;8.596;2023-06-22T15:17:06;34.50;43.90
6738;DHT22;3406;49.902;8.596;2023-06-22T15:19:34;34.50;44.10
6738;DHT22;3406;49.902;8.596;2023-06-22T15:22:01;34.50;44.30
6738;DHT22;3406;49.902;8.596;2023-06-22T15:24:27;34.50;44.40
6738;DHT22;3406;49.902;8.596;2023-06-22T15:26:55;34.50;44.50
6738;DHT22;3406;49.902;8.596;2023-06-22T15:29:22;34.50;44.50
6738;DHT22;3406;49.902;8.596;2023-06-22T15:31:48;34.60;44.60
6738;DHT22;3406;49.902;8.596;2023-06-22T15:34:15;34.70;44.60
6738;DHT22;3406;49.902;8.596;2023-06-22T15:36:42;34.70;44.40
6738;DHT22;3406;49.902;8.596;2023-06-22T15:39:09;34.80;44.60
6738;DHT22;3406;49.902;8.596;2023-06-22T15:41:36;34.80;44.30
6738;DHT22;3406;49.902;8.596;2023-06-22T15:44:07;34.80;44.20
6738;DHT22;3406;49.902;8.596;2023-06-22T15:46:33;34.70;44.30
6738;DHT22;3406;49.902;8.596;2023-06-22T15:49:00;34.50;44.50
6738;DHT22;3406;49.902;8.596;2023-06-22T15:51:27;34.30;44.70
6738;DHT22;3406;49.902;8.596;2023-06-22T15:53:54;34.10;45.00
6738;DHT22;3406;49.902;8.596;2023-06-22T15:56:20;34.00;45.40
6738;DHT22;3406;49.902;8.596;2023-06-22T15:58:48;33.80;45.60
6738;DHT22;3406;49.902;8.596;2023-06-22T16:01:16;33.70;45.50